Nearby METAR Reports

 

KEDC - Austin Exec, Texas, USA
Distance from station: SSE 10mi, 17km
Updated: Wed, 22-Jan-2020 7:35pm CST
Fog, Overcast
Fog, Overcast
 Wind from ESE
Wind: ESE 5 mph , 7 km/h
Temperature: 57°F , 14°C
Dew Point: 55°F , 13°C
Humidity: 94%
Barometer: 29.92 inHg , 1013.2 hPa
Summary: Fog
Clouds: Overcast
Visibility: 1/2 mile , 0.8 km
Cloud details: Overcast 300 ft
2020/01/23 01:35 KEDC 230135Z AUTO 11004KT 1/2SM FG OVC003 14/13 A2992 RMK AO2
KGTU - Georgetown, Texas, USA
Distance from station: NNW 11mi, 17km
Updated: Wed, 22-Jan-2020 7:56pm CST
Light rain, Mist, Overcast
Light rain, Mist, Overcast
 Wind from calm
Wind: Calm
Temperature: 54°F , 12°C
Dew Point: 54°F , 12°C
Humidity: 100%
Barometer: 29.94 inHg , 1013.9 hPa
Summary: Light rain, Mist
Clouds: Overcast
Visibility: 1 1/4 miles , 2 km
Cloud details: Overcast 300 ft
2020/01/23 01:56 KGTU 230156Z 00000KT 1 1/4SM -RA BR OVC003 12/12 A2994 RMK AO2 RAB03 SLP141 P0001 T01220117
 
KATT - Austin/Mabry, Texas, USA
Distance from station: SSW 18mi, 30km
Updated: Wed, 22-Jan-2020 7:51pm CST
Mist, Overcast
Mist, Overcast
 Wind from SSE
Wind: SSE 3 mph , 6 km/h
Temperature: 57°F , 14°C
Dew Point: 55°F , 13°C
Humidity: 94%
Barometer: 29.92 inHg , 1013.2 hPa
Summary: Mist
Clouds: Overcast
Visibility: 5 miles , 8 km
Cloud details: Overcast 400 ft
2020/01/23 01:51 KATT 230151Z AUTO 15003KT 5SM BR OVC004 14/13 A2992 RMK AO2 CIG 003V007 SLP131 T01440133
KRYW - Lago Vista, Texas, USA
Distance from station: W 22mi, 35km
Updated: Wed, 22-Jan-2020 7:55pm CST
Mist, Overcast
Mist, Overcast
 Wind from SSW
Wind: SSW 5 mph , 7 km/h
Temperature: 55°F , 13°C
Dew Point: 55°F , 13°C
Humidity: 100%
Barometer: 29.92 inHg , 1013.2 hPa
Summary: Mist
Clouds: Overcast
Visibility: 3 miles , 5 km
Cloud details: Overcast 300 ft
2020/01/23 01:55 KRYW 230155Z AUTO 20004KT 3SM BR OVC003 13/13 A2992 RMK AO2 T01300130
 
KAUS - Austin, Texas, USA
Distance from station: S 25mi, 41km
Updated: Wed, 22-Jan-2020 7:53pm CST
Mist, Overcast
Mist, Overcast
 Wind from SE
Wind: SE 5 mph , 7 km/h
Temperature: 59°F , 15°C
Dew Point: 57°F , 14°C
Humidity: 94%
Barometer: 29.91 inHg , 1012.9 hPa
Summary: Mist
Clouds: Overcast
Visibility: 1 mile , 2 km
Cloud details: Overcast 300 ft
2020/01/23 01:53 KAUS 230153Z 14004KT 1SM R17L/P6000FT BR OVC003 15/14 A2991 RMK AO2 SFC VIS 1 1/2 RAE23 SLP128 P0000 T01500144
KILE - Killeen Muni, Texas, USA
Distance from station: N 36mi, 58km
Updated: Wed, 22-Jan-2020 7:56pm CST
Mist, Overcast
Mist, Overcast
 Wind from E
Wind: E 3 mph , 6 km/h
Temperature: 48°F , 9°C
Dew Point: 48°F , 9°C
Humidity: 100%
Barometer: 29.93 inHg , 1013.5 hPa
Summary: Mist
Clouds: Overcast
Visibility: 3 miles , 5 km
Cloud details: Overcast 300 ft
2020/01/23 01:56 KILE 230156Z AUTO 10003KT 3SM BR OVC003 09/09 A2993 RMK AO2 SLP131 T00940094
 
KGRK - Gray/Ft Hood, Texas, USA
Distance from station: NNW 38mi, 62km
Updated: Wed, 22-Jan-2020 7:43pm CST
Mist, Overcast
Mist, Overcast
 Wind from ESE
Wind: ESE 5 mph , 7 km/h
Temperature: 50°F , 10°C
Wind Chill: 48°F , 9°C
Dew Point: 48°F , 9°C
Humidity: 94%
Barometer: 29.90 inHg , 1012.5 hPa
Summary: Mist
Clouds: Overcast
Visibility: 5 miles , 8 km
Cloud details: Overcast 200 ft
2020/01/23 01:43 KGRK 230143Z AUTO 12004KT 5SM BR OVC002 10/09 A2990 RMK AO2 SLP126
KBMQ - Burnet, Texas, USA
Distance from station: WNW 39mi, 64km
Updated: Wed, 22-Jan-2020 7:53pm CST
Overcast
Overcast
 Wind from S
Wind: S 3 mph , 6 km/h
Temperature: 55°F , 13°C
Dew Point: 54°F , 12°C
Humidity: 94%
Barometer: 29.94 inHg , 1013.9 hPa
Clouds: Overcast
Visibility: 7 miles , 11 km
Cloud details: Overcast 300 ft
2020/01/23 01:53 KBMQ 230153Z AUTO 18003KT 7SM OVC003 13/12 A2994 RMK AO2 SLP133 T01280122
 
KHLR - Ft Hood/Killeen, Texas, USA
Distance from station: N 41mi, 66km
Updated: Wed, 22-Jan-2020 5:58pm CST
NOT Current
Overcast
Overcast
 Wind from ESE
Wind: ESE 3 mph , 6 km/h
Temperature: 50°F , 10°C
Dew Point: 48°F , 9°C
Humidity: 94%
Barometer: 29.91 inHg , 1012.9 hPa
Clouds: Overcast
Visibility: 9 miles , 14 km
Cloud details: Overcast 100 ft
2020/01/22 23:58 KHLR 222358Z AUTO 12003KT 9SM OVC001 10/09 A2991 RMK AO2 LTG DSNT S SLPNO 55005
KTPL - Temple/Miller, Texas, USA
Distance from station: NNE 42mi, 68km
Updated: Wed, 22-Jan-2020 7:51pm CST
Light rain, Overcast
Light rain, Overcast
 Wind from calm
Wind: Calm
Temperature: 48°F , 9°C
Barometer: 29.94 inHg , 1013.9 hPa
Summary: Light rain
Clouds: Overcast
Visibility: 2 miles , 3 km
Cloud details: Overcast 300 ft
2020/01/23 01:51 KTPL 230151Z AUTO 00000KT 2SM -RA OVC003 09/ A2994 RMK AO2 VIS 1 1/2V3 SLP136 P0001 T0094
 
KT35 - Cameron, Texas, USA
Distance from station: ENE 45mi, 72km
Updated: Wed, 22-Jan-2020 7:35pm CST
Mist, Overcast
Mist, Overcast
 Wind from calm
Wind: Calm
Temperature: 52°F , 11°C
Dew Point: 52°F , 11°C
Humidity: 100%
Barometer: 29.93 inHg , 1013.5 hPa
Summary: Mist
Clouds: Overcast
Visibility: 1 1/2 miles , 2.4 km
Cloud details: Overcast 300 ft
2020/01/23 01:35 KT35 230135Z AUTO 00000KT 1 1/2SM BR OVC003 11/11 A2993 RMK AO2 P0001 T01130110
KDZB - Horseshoe Bay, Texas, USA
Distance from station: W 45mi, 73km
Updated: Wed, 22-Jan-2020 7:44pm CST
Overcast
Overcast
 Wind from calm
Wind: Calm
Temperature: 55°F , 13°C
Dew Point: 55°F , 13°C
Humidity: 100%
Barometer: 29.92 inHg , 1013.2 hPa
Clouds: Overcast
Visibility: 10 miles , 16 km
Cloud details: Overcast 700 ft
2020/01/23 01:44 KDZB 230144Z AUTO 00000KT 10SM OVC007 13/13 A2992 RMK AO2
 
KGYB - Giddings-Lee, Texas, USA
Distance from station: SE 45mi, 73km
Updated: Wed, 22-Jan-2020 7:55pm CST
Heavy rain, Overcast
Heavy rain, Overcast
 Wind from SSE
Wind: SSE 6 mph , 9 km/h
Temperature: 54°F , 12°C
Dew Point: 54°F , 12°C
Humidity: 100%
Barometer: 29.93 inHg , 1013.5 hPa
Summary: Heavy rain
Clouds: Overcast
Visibility: 3 miles , 5 km
Cloud details: Mostly cloudy 500 ft
Overcast 900 ft
2020/01/23 01:55 KGYB 230155Z AUTO 15005KT 3SM +RA BKN005 OVC009 12/12 A2993 RMK AO2 P0002 T01200118
KHYI - San Marcos, Texas, USA
Distance from station: SSW 48mi, 78km
Updated: Wed, 22-Jan-2020 7:56pm CST
Mist, Overcast
Mist, Overcast
 Wind from S
Wind: S 3 mph , 6 km/h
Temperature: 57°F , 14°C
Dew Point: 57°F , 14°C
Humidity: 100%
Barometer: 29.92 inHg , 1013.2 hPa
Summary: Mist
Clouds: Overcast
Visibility: 3 miles , 5 km
Cloud details: Overcast 400 ft
2020/01/23 01:56 KHYI 230156Z AUTO 17003KT 3SM BR OVC004 14/14 A2992 RMK AO2 SLP128 T01440144
 
KLZZ - Lampasas, Texas, USA
Distance from station: NW 52mi, 84km
Updated: Sun, 01-Dec-2019 4:15pm CST
NOT Current
Clear
Clear
 Wind from NNW
Wind: NNW 9 mph , 15 km/h
Temperature: 59°F , 15°C
Dew Point: 21°F , -6°C
Humidity: 23%
Barometer: 30.16 inHg , 1021.3 hPa
Clouds: Clear
Visibility: 10 miles , 16 km
2019/12/01 22:15 KLZZ 012215Z AUTO 34008KT 10SM CLR 15/M06 A3016 RMK AO2 T01491063
KRWV - Caldwell, Texas, USA
Distance from station: E 54mi, 87km
Updated: Wed, 22-Jan-2020 7:30pm CST
Light drizzle, Mist, Overcast
Light drizzle, Mist, Overcast
 Wind from SSE
Wind: SSE 5 mph , 7 km/h
Temperature: 55°F , 13°C
Barometer: 29.94 inHg , 1013.9 hPa
Summary: Light drizzle, Mist
Clouds: Overcast
Visibility: 1 3/4 miles , 2.8 km
Cloud details: Overcast 300 ft
2020/01/23 01:30 KRWV 230130Z AUTO 16004KT 1 3/4SM -DZ BR OVC003 13/ A2994 RMK AO2 P0004 T0135////
 
K3T5 - La Grange, Texas, USA
Distance from station: SE 59mi, 95km
Updated: Wed, 22-Jan-2020 7:55pm CST
Overcast
Overcast
 Wind from SSE
Wind: SSE 8 mph , 13 km/h
Temperature: 59°F , 15°C
Dew Point: 59°F , 15°C
Humidity: 100%
Barometer: 29.91 inHg , 1012.9 hPa
Clouds: Overcast
Visibility: 7 miles , 11 km
Cloud details: Overcast 500 ft
2020/01/23 01:55 K3T5 230155Z AUTO 15007KT 7SM OVC005 15/15 A2991 RMK AO2 P0001 T01530153
KGOP - Gatesville, Texas, USA
Distance from station: N 61mi, 99km
Updated: Wed, 22-Jan-2020 7:55pm CST
Mist, Overcast
Mist, Overcast
 Wind from E
Wind: E 3 mph , 6 km/h
Temperature: 48°F , 9°C
Dew Point: 48°F , 9°C
Humidity: 100%
Barometer: 29.94 inHg , 1013.9 hPa
Summary: Mist
Clouds: Overcast
Visibility: 1/2 mile , 0.8 km
Cloud details: Overcast 100 ft
2020/01/23 01:55 KGOP 230155Z AUTO 10003KT 1/2SM BR OVC001 09/09 A2994 RMK AO2
 
KLHB - Hearne Muni, Texas, USA
Distance from station: ENE 63mi, 101km
Updated: Wed, 22-Jan-2020 7:55pm CST
Heavy rain, Overcast
Heavy rain, Overcast
 Wind from SE
Wind: SE 3 mph , 6 km/h
Temperature: 55°F , 13°C
Dew Point: 55°F , 13°C
Humidity: 100%
Barometer: 29.95 inHg , 1014.2 hPa
Summary: Heavy rain
Clouds: Overcast
Visibility: 4 miles , 6 km
Cloud details: Overcast 300 ft
2020/01/23 01:55 KLHB 230155Z AUTO 13003KT 4SM +RA OVC003 13/13 A2995 RMK AO2 P0008 T01320127
KBAZ - New Braunfels, Texas, USA
Distance from station: SSW 63mi, 102km
Updated: Wed, 22-Jan-2020 7:51pm CST
Mist, Overcast
Mist, Overcast
 Wind from SSW
Wind: SSW 5 mph , 7 km/h
Temperature: 59°F , 15°C
Dew Point: 57°F , 14°C
Humidity: 94%
Barometer: 29.91 inHg , 1012.9 hPa
Summary: Mist
Clouds: Overcast
Visibility: 6 miles , 10 km
Cloud details: Overcast 400 ft
2020/01/23 01:51 KBAZ 230151Z AUTO 21004KT 6SM BR OVC004 15/14 A2991 RMK AO2 SLP124 T01500139